sensor_id;sensor_type;location;lat;lon;timestamp;pressure;altitude;pressure_sealevel;temperature;humidity
9717;BME280;4897;43.570;27.832;2023-07-20T00:01:40;98365.22;;;24.06;100.00
9717;BME280;4897;43.570;27.832;2023-07-20T00:04:10;98377.94;;;24.12;100.00
9717;BME280;4897;43.570;27.832;2023-07-20T00:06:38;98359.06;;;24.11;100.00
9717;BME280;4897;43.570;27.832;2023-07-20T00:09:06;98360.97;;;24.10;100.00
9717;BME280;4897;43.570;27.832;2023-07-20T00:11:36;98367.84;;;24.13;100.00
9717;BME280;4897;43.570;27.832;2023-07-20T00:14:03;98374.84;;;24.20;100.00
9717;BME280;4897;43.570;27.832;2023-07-20T00:16:30;98374.41;;;24.23;100.00
9717;BME280;4897;43.570;27.832;2023-07-20T00:18:57;98387.47;;;24.21;100.00
9717;BME280;4897;43.570;27.832;2023-07-20T00:21:25;98383.09;;;24.32;100.00
9717;BME280;4897;43.570;27.832;2023-07-20T00:23:53;98321.84;;;23.98;100.00
9717;BME280;4897;43.570;27.832;2023-07-20T00:26:20;98369.19;;;24.33;100.00
9717;BME280;4897;43.570;27.832;2023-07-20T00:28:51;98361.34;;;24.48;100.00
9717;BME280;4897;43.570;27.832;2023-07-20T00:31:18;98375.47;;;24.45;100.00
9717;BME280;4897;43.570;27.832;2023-07-20T00:33:45;98384.66;;;24.51;100.00
9717;BME280;4897;43.570;27.832;2023-07-20T00:36:12;98352.91;;;24.27;100.00
9717;BME280;4897;43.570;27.832;2023-07-20T00:38:39;98380.09;;;24.33;100.00
9717;BME280;4897;43.570;27.832;2023-07-20T00:41:07;98367.50;;;24.21;100.00
9717;BME280;4897;43.570;27.832;2023-07-20T00:43:34;98375.25;;;24.24;100.00
9717;BME280;4897;43.570;27.832;2023-07-20T00:46:01;98364.88;;;24.14;100.00
9717;BME280;4897;43.570;27.832;2023-07-20T00:48:29;98369.75;;;24.12;100.00
9717;BME280;4897;43.570;27.832;2023-07-20T00:50:56;98353.25;;;24.07;100.00
9717;BME280;4897;43.570;27.832;2023-07-20T00:53:24;98362.50;;;24.06;100.00
9717;BME280;4897;43.570;27.832;2023-07-20T00:55:51;98363.41;;;24.00;100.00
9717;BME280;4897;43.570;27.832;2023-07-20T00:58:20;98369.63;;;24.07;100.00
9717;BME280;4897;43.570;27.832;2023-07-20T01:00:47;98360.84;;;24.05;100.00
9717;BME280;4897;43.570;27.832;2023-07-20T01:03:14;98360.06;;;23.98;100.00
9717;BME280;4897;43.570;27.832;2023-07-20T01:05:47;98364.34;;;23.94;100.00
9717;BME280;4897;43.570;27.832;2023-07-20T01:08:20;98356.63;;;23.91;100.00
9717;BME280;4897;43.570;27.832;2023-07-20T01:10:55;98356.50;;;23.86;100.00
9717;BME280;4897;43.570;27.832;2023-07-20T01:13:25;98367.88;;;23.83;100.00
9717;BME280;4897;43.570;27.832;2023-07-20T01:15:56;98367.31;;;23.93;100.00
9717;BME280;4897;43.570;27.832;2023-07-20T01:18:24;98362.06;;;23.91;100.00
9717;BME280;4897;43.570;27.832;2023-07-20T01:20:52;98359.94;;;23.93;100.00
9717;BME280;4897;43.570;27.832;2023-07-20T01:23:40;98354.97;;;24.02;100.00
9717;BME280;4897;43.570;27.832;2023-07-20T01:26:26;98354.97;;;24.02;100.00
9717;BME280;4897;43.570;27.832;2023-07-20T01:29:15;98303.38;;;23.70;100.00
9717;BME280;4897;43.570;27.832;2023-07-20T01:31:52;98362.50;;;24.06;100.00
9717;BME280;4897;43.570;27.832;2023-07-20T01:34:22;98375.47;;;24.11;100.00
9717;BME280;4897;43.570;27.832;2023-07-20T01:36:50;98391.00;;;24.10;100.00
9717;BME280;4897;43.570;27.832;2023-07-20T01:39:21;98411.72;;;24.29;100.00
9717;BME280;4897;43.570;27.832;2023-07-20T01:41:49;98446.78;;;24.55;100.00
9717;BME280;4897;43.570;27.832;2023-07-20T01:44:16;98440.75;;;24.65;100.00
9717;BME280;4897;43.570;27.832;2023-07-20T01:46:43;98449.53;;;24.67;100.00
9717;BME280;4897;43.570;27.832;2023-07-20T01:49:11;98469.72;;;24.54;100.00
9717;BME280;4897;43.570;27.832;2023-07-20T01:51:38;98467.84;;;24.55;100.00
9717;BME280;4897;43.570;27.832;2023-07-20T01:54:06;98442.06;;;25.09;100.00
9717;BME280;4897;43.570;27.832;2023-07-20T01:56:32;98430.47;;;25.30;100.00
9717;BME280;4897;43.570;27.832;2023-07-20T01:58:59;98466.31;;;25.68;100.00
9717;BME280;4897;43.570;27.832;2023-07-20T02:01:26;98464.69;;;25.67;100.00
9717;BME280;4897;43.570;27.832;2023-07-20T02:03:54;98479.22;;;25.56;100.00
9717;BME280;4897;43.570;27.832;2023-07-20T02:06:22;98464.59;;;25.39;100.00
9717;BME280;4897;43.570;27.832;2023-07-20T02:08:49;98438.09;;;25.28;100.00
9717;BME280;4897;43.570;27.832;2023-07-20T02:11:16;98402.13;;;24.96;100.00
9717;BME280;4897;43.570;27.832;2023-07-20T02:13:43;98437.25;;;25.27;100.00
9717;BME280;4897;43.570;27.832;2023-07-20T02:16:10;98465.94;;;25.25;100.00
9717;BME280;4897;43.570;27.832;2023-07-20T02:18:37;98421.34;;;25.13;100.00
9717;BME280;4897;43.570;27.832;2023-07-20T02:21:04;98435.03;;;25.13;100.00
9717;BME280;4897;43.570;27.832;2023-07-20T02:23:32;98441.34;;;25.13;100.00
9717;BME280;4897;43.570;27.832;2023-07-20T02:25:59;98428.03;;;25.05;100.00
9717;BME280;4897;43.570;27.832;2023-07-20T02:28:26;98409.84;;;24.88;100.00
9717;BME280;4897;43.570;27.832;2023-07-20T02:30:54;98412.00;;;24.86;100.00
9717;BME280;4897;43.570;27.832;2023-07-20T02:33:24;98403.44;;;24.82;100.00
9717;BME280;4897;43.570;27.832;2023-07-20T02:35:52;98398.31;;;24.86;100.00
9717;BME280;4897;43.570;27.832;2023-07-20T02:38:18;98395.94;;;24.78;100.00
9717;BME280;4897;43.570;27.832;2023-07-20T02:40:47;98397.50;;;24.74;100.00
9717;BME280;4897;43.570;27.832;2023-07-20T02:43:14;98391.16;;;24.73;100.00
9717;BME280;4897;43.570;27.832;2023-07-20T02:45:41;98387.84;;;24.71;100.00
9717;BME280;4897;43.570;27.832;2023-07-20T02:48:08;98377.84;;;24.65;100.00
9717;BME280;4897;43.570;27.832;2023-07-20T02:50:35;98386.31;;;24.64;100.00
9717;BME280;4897;43.570;27.832;2023-07-20T02:53:02;98379.16;;;24.63;100.00
9717;BME280;4897;43.570;27.832;2023-07-20T02:55:28;98361.94;;;24.50;100.00
9717;BME280;4897;43.570;27.832;2023-07-20T02:57:57;98376.66;;;24.49;100.00
9717;BME280;4897;43.570;27.832;2023-07-20T03:00:23;98372.97;;;24.44;100.00
9717;BME280;4897;43.570;27.832;2023-07-20T03:02:51;98371.09;;;24.44;100.00
9717;BME280;4897;43.570;27.832;2023-07-20T03:05:21;98374.78;;;24.38;100.00
9717;BME280;4897;43.570;27.832;2023-07-20T03:07:50;98349.81;;;24.35;100.00
9717;BME280;4897;43.570;27.832;2023-07-20T03:10:17;98356.09;;;24.35;100.00
9717;BME280;4897;43.570;27.832;2023-07-20T03:12:44;98347.09;;;24.46;100.00
9717;BME280;4897;43.570;27.832;2023-07-20T03:15:13;98262.94;;;24.02;100.00
9717;BME280;4897;43.570;27.832;2023-07-20T03:17:40;98343.75;;;24.56;100.00
9717;BME280;4897;43.570;27.832;2023-07-20T03:20:08;98339.22;;;24.61;100.00
9717;BME280;4897;43.570;27.832;2023-07-20T03:22:35;98338.28;;;24.68;100.00
9717;BME280;4897;43.570;27.832;2023-07-20T03:25:03;98326.84;;;24.71;100.00
9717;BME280;4897;43.570;27.832;2023-07-20T03:27:30;98317.13;;;24.75;100.00
9717;BME280;4897;43.570;27.832;2023-07-20T03:29:57;98308.53;;;24.83;100.00
9717;BME280;4897;43.570;27.832;2023-07-20T03:32:25;98303.78;;;24.90;100.00
9717;BME280;4897;43.570;27.832;2023-07-20T03:34:52;98286.78;;;24.88;100.00
9717;BME280;4897;43.570;27.832;2023-07-20T03:37:19;98285.28;;;25.08;100.00
9717;BME280;4897;43.570;27.832;2023-07-20T03:39:46;98271.94;;;25.12;100.00
9717;BME280;4897;43.570;27.832;2023-07-20T03:42:15;98251.22;;;25.16;100.00
9717;BME280;4897;43.570;27.832;2023-07-20T03:44:42;98252.66;;;25.35;100.00
9717;BME280;4897;43.570;27.832;2023-07-20T03:47:11;98233.22;;;25.48;100.00
9717;BME280;4897;43.570;27.832;2023-07-20T03:49:41;98176.44;;;25.27;100.00
9717;BME280;4897;43.570;27.832;2023-07-20T03:52:08;98177.19;;;25.39;100.00
9717;BME280;4897;43.570;27.832;2023-07-20T03:54:35;98224.28;;;25.86;100.00
9717;BME280;4897;43.570;27.832;2023-07-20T03:57:02;98225.75;;;25.93;100.00
9717;BME280;4897;43.570;27.832;2023-07-20T03:59:29;98223.00;;;25.93;100.00
9717;BME280;4897;43.570;27.832;2023-07-20T04:01:56;98207.31;;;26.05;100.00
9717;BME280;4897;43.570;27.832;2023-07-20T04:04:24;98189.38;;;26.14;100.00
9717;BME280;4897;43.570;27.832;2023-07-20T04:06:52;98187.13;;;26.28;100.00
9717;BME280;4897;43.570;27.832;2023-07-20T04:09:19;98182.97;;;26.26;100.00
9717;BME280;4897;43.570;27.832;2023-07-20T04:11:46;98216.19;;;26.51;100.00
9717;BME280;4897;43.570;27.832;2023-07-20T04:14:13;98222.38;;;26.63;100.00
9717;BME280;4897;43.570;27.832;2023-07-20T04:16:40;98231.69;;;26.62;100.00
9717;BME280;4897;43.570;27.832;2023-07-20T04:19:10;98259.41;;;26.44;100.00
9717;BME280;4897;43.570;27.832;2023-07-20T04:21:40;98259.53;;;26.32;100.00
9717;BME280;4897;43.570;27.832;2023-07-20T04:24:09;98291.50;;;26.27;100.00
9717;BME280;4897;43.570;27.832;2023-07-20T04:26:36;98294.25;;;26.10;100.00
9717;BME280;4897;43.570;27.832;2023-07-20T04:29:03;98304.38;;;25.93;100.00
9717;BME280;4897;43.570;27.832;2023-07-20T04:31:30;98312.97;;;25.68;100.00
9717;BME280;4897;43.570;27.832;2023-07-20T04:33:58;98328.94;;;25.88;100.00
9717;BME280;4897;43.570;27.832;2023-07-20T04:36:25;98315.00;;;25.89;100.00
9717;BME280;4897;43.570;27.832;2023-07-20T04:38:52;98346.91;;;26.12;100.00
9717;BME280;4897;43.570;27.832;2023-07-20T04:41:20;98325.81;;;26.12;100.00
9717;BME280;4897;43.570;27.832;2023-07-20T04:43:47;98342.94;;;26.20;100.00
9717;BME280;4897;43.570;27.832;2023-07-20T04:46:15;98347.75;;;26.12;100.00
9717;BME280;4897;43.570;27.832;2023-07-20T04:48:43;98347.16;;;26.10;100.00
9717;BME280;4897;43.570;27.832;2023-07-20T04:51:10;98339.19;;;26.09;100.00
9717;BME280;4897;43.570;27.832;2023-07-20T04:53:37;98345.22;;;25.94;100.00
9717;BME280;4897;43.570;27.832;2023-07-20T04:56:04;98353.34;;;26.06;100.00
9717;BME280;4897;43.570;27.832;2023-07-20T04:58:32;98359.00;;;25.99;100.00
9717;BME280;4897;43.570;27.832;2023-07-20T05:00:59;98355.66;;;25.97;100.00
9717;BME280;4897;43.570;27.832;2023-07-20T05:03:26;98350.53;;;25.84;100.00
9717;BME280;4897;43.570;27.832;2023-07-20T05:05:56;98337.25;;;25.76;100.00
9717;BME280;4897;43.570;27.832;2023-07-20T05:08:23;98353.22;;;26.12;100.00
9717;BME280;4897;43.570;27.832;2023-07-20T05:10:50;98345.41;;;26.38;100.00
9717;BME280;4897;43.570;27.832;2023-07-20T05:13:17;98345.31;;;26.66;100.00
9717;BME280;4897;43.570;27.832;2023-07-20T05:15:45;98322.72;;;26.97;100.00
9717;BME280;4897;43.570;27.832;2023-07-20T05:18:12;98327.22;;;27.30;100.00
9717;BME280;4897;43.570;27.832;2023-07-20T05:20:48;98355.81;;;27.34;100.00
9717;BME280;4897;43.570;27.832;2023-07-20T05:23:17;98347.41;;;26.97;100.00
9717;BME280;4897;43.570;27.832;2023-07-20T05:25:45;98380.03;;;26.77;100.00
9717;BME280;4897;43.570;27.832;2023-07-20T05:28:12;98377.25;;;26.39;100.00
9717;BME280;4897;43.570;27.832;2023-07-20T05:30:42;98380.75;;;26.06;100.00
9717;BME280;4897;43.570;27.832;2023-07-20T05:33:10;98368.19;;;25.77;100.00
9717;BME280;4897;43.570;27.832;2023-07-20T05:35:37;98376.41;;;25.93;100.00
9717;BME280;4897;43.570;27.832;2023-07-20T05:38:04;98363.97;;;25.86;100.00
9717;BME280;4897;43.570;27.832;2023-07-20T05:40:32;98355.72;;;26.14;100.00
9717;BME280;4897;43.570;27.832;2023-07-20T05:42:58;98362.81;;;25.98;100.00
9717;BME280;4897;43.570;27.832;2023-07-20T05:45:26;98410.84;;;25.45;100.00
9717;BME280;4897;43.570;27.832;2023-07-20T05:47:53;98387.06;;;25.22;100.00
9717;BME280;4897;43.570;27.832;2023-07-20T05:50:21;98399.03;;;25.32;100.00
9717;BME280;4897;43.570;27.832;2023-07-20T05:52:52;98407.41;;;25.26;100.00
9717;BME280;4897;43.570;27.832;2023-07-20T05:55:19;98429.56;;;25.13;100.00
9717;BME280;4897;43.570;27.832;2023-07-20T05:57:52;98436.25;;;24.82;100.00
9717;BME280;4897;43.570;27.832;2023-07-20T06:00:21;98440.03;;;24.70;100.00
9717;BME280;4897;43.570;27.832;2023-07-20T06:02:52;98437.91;;;24.72;100.00
9717;BME280;4897;43.570;27.832;2023-07-20T06:05:18;98457.59;;;24.62;100.00
9717;BME280;4897;43.570;27.832;2023-07-20T06:07:47;98406.25;;;24.29;100.00
9717;BME280;4897;43.570;27.832;2023-07-20T06:10:14;98452.03;;;24.57;100.00
9717;BME280;4897;43.570;27.832;2023-07-20T06:12:41;98446.91;;;24.60;100.00
9717;BME280;4897;43.570;27.832;2023-07-20T06:15:24;98458.91;;;24.48;100.00
9717;BME280;4897;43.570;27.832;2023-07-20T06:17:52;98457.97;;;24.54;100.00
9717;BME280;4897;43.570;27.832;2023-07-20T06:20:19;98449.41;;;24.62;100.00
9717;BME280;4897;43.570;27.832;2023-07-20T06:22:47;98440.81;;;24.35;100.00
9717;BME280;4897;43.570;27.832;2023-07-20T06:25:14;98452.19;;;24.74;100.00
9717;BME280;4897;43.570;27.832;2023-07-20T06:27:42;98438.22;;;25.10;100.00
9717;BME280;4897;43.570;27.832;2023-07-20T06:30:10;98446.31;;;25.28;100.00
9717;BME280;4897;43.570;27.832;2023-07-20T06:32:37;98433.81;;;25.32;100.00
9717;BME280;4897;43.570;27.832;2023-07-20T06:35:05;98440.09;;;25.32;100.00
9717;BME280;4897;43.570;27.832;2023-07-20T06:37:34;98439.13;;;25.50;100.00
9717;BME280;4897;43.570;27.832;2023-07-20T06:40:04;98424.75;;;25.43;100.00
9717;BME280;4897;43.570;27.832;2023-07-20T06:42:31;98409.16;;;25.44;100.00
9717;BME280;4897;43.570;27.832;2023-07-20T06:44:58;98439.34;;;25.60;100.00
9717;BME280;4897;43.570;27.832;2023-07-20T06:47:27;98425.91;;;25.47;100.00
9717;BME280;4897;43.570;27.832;2023-07-20T06:49:54;98418.03;;;24.99;100.00
9717;BME280;4897;43.570;27.832;2023-07-20T06:52:21;98428.38;;;24.74;100.00
9717;BME280;4897;43.570;27.832;2023-07-20T06:54:51;98414.34;;;24.59;100.00
9717;BME280;4897;43.570;27.832;2023-07-20T06:57:22;98411.13;;;24.39;100.00
9717;BME280;4897;43.570;27.832;2023-07-20T07:00:05;98388.56;;;24.32;100.00
9717;BME280;4897;43.570;27.832;2023-07-20T07:02:35;98396.88;;;24.60;100.00
9717;BME280;4897;43.570;27.832;2023-07-20T07:05:02;98399.28;;;24.80;100.00
9717;BME280;4897;43.570;27.832;2023-07-20T07:07:29;98402.00;;;25.03;100.00
9717;BME280;4897;43.570;27.832;2023-07-20T07:09:56;98408.00;;;25.28;100.00
9717;BME280;4897;43.570;27.832;2023-07-20T07:12:24;98407.97;;;25.51;100.00
9717;BME280;4897;43.570;27.832;2023-07-20T07:14:51;98393.75;;;25.66;100.00
9717;BME280;4897;43.570;27.832;2023-07-20T07:17:19;98404.22;;;25.85;100.00
9717;BME280;4897;43.570;27.832;2023-07-20T07:19:46;98400.41;;;25.86;100.00
9717;BME280;4897;43.570;27.832;2023-07-20T07:22:12;98351.25;;;25.63;100.00
9717;BME280;4897;43.570;27.832;2023-07-20T07:24:40;98385.38;;;26.17;100.00
9717;BME280;4897;43.570;27.832;2023-07-20T07:27:08;98394.84;;;26.76;100.00
9717;BME280;4897;43.570;27.832;2023-07-20T07:29:36;98386.78;;;27.29;100.00
9717;BME280;4897;43.570;27.832;2023-07-20T07:32:04;98391.72;;;27.49;100.00
9717;BME280;4897;43.570;27.832;2023-07-20T07:34:31;98399.59;;;27.40;100.00
9717;BME280;4897;43.570;27.832;2023-07-20T07:37:00;98401.31;;;27.08;100.00
9717;BME280;4897;43.570;27.832;2023-07-20T07:39:29;98401.38;;;26.91;100.00
9717;BME280;4897;43.570;27.832;2023-07-20T07:41:56;98406.22;;;26.84;100.00
9717;BME280;4897;43.570;27.832;2023-07-20T07:44:24;98394.50;;;26.72;100.00
9717;BME280;4897;43.570;27.832;2023-07-20T07:46:52;98394.59;;;26.77;100.00
9717;BME280;4897;43.570;27.832;2023-07-20T07:49:19;98370.81;;;26.50;100.00
9717;BME280;4897;43.570;27.832;2023-07-20T07:51:47;98387.78;;;26.63;100.00
9717;BME280;4897;43.570;27.832;2023-07-20T07:54:14;98391.25;;;26.59;100.00
9717;BME280;4897;43.570;27.832;2023-07-20T07:56:41;98389.00;;;26.39;100.00
9717;BME280;4897;43.570;27.832;2023-07-20T07:59:09;98398.34;;;26.38;100.00
9717;BME280;4897;43.570;27.832;2023-07-20T08:01:36;98385.63;;;26.49;100.00
9717;BME280;4897;43.570;27.832;2023-07-20T08:04:05;98380.31;;;26.26;100.00
9717;BME280;4897;43.570;27.832;2023-07-20T08:06:32;98384.22;;;26.30;100.00
9717;BME280;4897;43.570;27.832;2023-07-20T08:08:59;98408.97;;;26.51;100.00
9717;BME280;4897;43.570;27.832;2023-07-20T08:11:26;98400.38;;;26.64;100.00
9717;BME280;4897;43.570;27.832;2023-07-20T08:13:53;98401.75;;;26.78;100.00
9717;BME280;4897;43.570;27.832;2023-07-20T08:16:20;98386.34;;;26.77;100.00
9717;BME280;4897;43.570;27.832;2023-07-20T08:18:47;98399.72;;;26.90;100.00
9717;BME280;4897;43.570;27.832;2023-07-20T08:21:15;98396.97;;;27.12;100.00
9717;BME280;4897;43.570;27.832;2023-07-20T08:23:42;98387.31;;;27.26;100.00
9717;BME280;4897;43.570;27.832;2023-07-20T08:26:09;98401.13;;;27.53;100.00
9717;BME280;4897;43.570;27.832;2023-07-20T08:28:39;98392.16;;;27.89;100.00
9717;BME280;4897;43.570;27.832;2023-07-20T08:31:06;98390.09;;;28.33;100.00
9717;BME280;4897;43.570;27.832;2023-07-20T08:33:33;98385.28;;;29.23;100.00
9717;BME280;4897;43.570;27.832;2023-07-20T08:36:00;98397.28;;;29.07;100.00
9717;BME280;4897;43.570;27.832;2023-07-20T08:38:30;98402.66;;;28.87;100.00
9717;BME280;4897;43.570;27.832;2023-07-20T08:40:57;98391.78;;;29.12;100.00
9717;BME280;4897;43.570;27.832;2023-07-20T08:43:26;98382.84;;;31.59;100.00
9717;BME280;4897;43.570;27.832;2023-07-20T08:45:55;98388.75;;;33.44;100.00
9717;BME280;4897;43.570;27.832;2023-07-20T08:48:24;98395.56;;;32.81;100.00
9717;BME280;4897;43.570;27.832;2023-07-20T08:50:54;98397.34;;;31.89;100.00
9717;BME280;4897;43.570;27.832;2023-07-20T08:53:21;98394.75;;;32.47;100.00
9717;BME280;4897;43.570;27.832;2023-07-20T08:55:51;98358.59;;;32.90;100.00
9717;BME280;4897;43.570;27.832;2023-07-20T08:58:18;98389.88;;;32.96;100.00
9717;BME280;4897;43.570;27.832;2023-07-20T09:00:46;98405.31;;;32.40;100.00
9717;BME280;4897;43.570;27.832;2023-07-20T09:03:16;98394.16;;;32.11;100.00
9717;BME280;4897;43.570;27.832;2023-07-20T09:05:43;98402.19;;;32.12;100.00
9717;BME280;4897;43.570;27.832;2023-07-20T09:08:11;98378.94;;;33.33;100.00
9717;BME280;4897;43.570;27.832;2023-07-20T09:10:38;98398.38;;;34.82;76.25
9717;BME280;4897;43.570;27.832;2023-07-20T09:13:06;98383.53;;;35.05;73.45
9717;BME280;4897;43.570;27.832;2023-07-20T09:15:33;98386.16;;;36.41;62.85
9717;BME280;4897;43.570;27.832;2023-07-20T09:18:01;98381.22;;;36.60;58.88
9717;BME280;4897;43.570;27.832;2023-07-20T09:20:31;98383.16;;;37.04;56.76
9717;BME280;4897;43.570;27.832;2023-07-20T09:23:04;98376.78;;;38.51;53.36
9717;BME280;4897;43.570;27.832;2023-07-20T09:25:33;98371.34;;;39.26;48.98
9717;BME280;4897;43.570;27.832;2023-07-20T09:28:02;98381.50;;;37.34;55.42
9717;BME280;4897;43.570;27.832;2023-07-20T09:30:31;98396.72;;;36.75;58.86
9717;BME280;4897;43.570;27.832;2023-07-20T09:32:58;98381.28;;;37.78;54.52
9717;BME280;4897;43.570;27.832;2023-07-20T09:35:25;98384.13;;;37.39;54.38
9717;BME280;4897;43.570;27.832;2023-07-20T09:37:55;98360.75;;;37.66;53.19
9717;BME280;4897;43.570;27.832;2023-07-20T09:40:24;98376.03;;;36.67;57.79
9717;BME280;4897;43.570;27.832;2023-07-20T09:42:52;98362.59;;;36.47;58.01
9717;BME280;4897;43.570;27.832;2023-07-20T09:45:29;98377.88;;;35.51;62.75
9717;BME280;4897;43.570;27.832;2023-07-20T09:48:03;98371.91;;;35.30;64.87
9717;BME280;4897;43.570;27.832;2023-07-20T09:50:30;98373.09;;;34.97;67.57
9717;BME280;4897;43.570;27.832;2023-07-20T09:52:58;98371.50;;;34.45;69.63
9717;BME280;4897;43.570;27.832;2023-07-20T09:55:26;98378.81;;;34.23;68.30
9717;BME280;4897;43.570;27.832;2023-07-20T09:57:53;98371.09;;;34.84;66.11
9717;BME280;4897;43.570;27.832;2023-07-20T10:00:21;98353.75;;;34.28;67.97
9717;BME280;4897;43.570;27.832;2023-07-20T10:02:51;98362.00;;;33.35;74.41
9717;BME280;4897;43.570;27.832;2023-07-20T10:05:20;98360.22;;;32.68;80.30
9717;BME280;4897;43.570;27.832;2023-07-20T10:07:48;98360.69;;;34.12;72.32
9717;BME280;4897;43.570;27.832;2023-07-20T10:10:17;98355.91;;;35.77;62.54
9717;BME280;4897;43.570;27.832;2023-07-20T10:12:49;98358.66;;;36.26;58.33
9717;BME280;4897;43.570;27.832;2023-07-20T10:15:20;98364.34;;;35.85;58.87
9717;BME280;4897;43.570;27.832;2023-07-20T10:17:59;98344.59;;;35.32;61.14
9717;BME280;4897;43.570;27.832;2023-07-20T10:20:28;98355.72;;;34.59;65.21
9717;BME280;4897;43.570;27.832;2023-07-20T10:22:56;98348.81;;;35.03;62.92
9717;BME280;4897;43.570;27.832;2023-07-20T10:25:27;98326.53;;;34.11;68.50
9717;BME280;4897;43.570;27.832;2023-07-20T10:27:57;98359.34;;;34.60;62.01
9717;BME280;4897;43.570;27.832;2023-07-20T10:30:27;98349.66;;;35.71;58.49
9717;BME280;4897;43.570;27.832;2023-07-20T10:32:54;98356.38;;;36.06;55.82
9717;BME280;4897;43.570;27.832;2023-07-20T10:35:21;98304.34;;;34.89;59.25
9717;BME280;4897;43.570;27.832;2023-07-20T10:37:51;98318.03;;;36.47;55.02
9717;BME280;4897;43.570;27.832;2023-07-20T10:40:32;98323.81;;;37.77;51.19
9717;BME280;4897;43.570;27.832;2023-07-20T10:43:04;98332.34;;;37.16;51.75
9717;BME280;4897;43.570;27.832;2023-07-20T10:45:52;98314.41;;;36.69;54.23
9717;BME280;4897;43.570;27.832;2023-07-20T10:48:20;98316.28;;;38.20;48.93
9717;BME280;4897;43.570;27.832;2023-07-20T10:51:09;98335.06;;;36.24;53.17
9717;BME280;4897;43.570;27.832;2023-07-20T10:53:37;98310.97;;;36.94;52.19
9717;BME280;4897;43.570;27.832;2023-07-20T10:56:08;98301.69;;;36.85;51.92
9717;BME280;4897;43.570;27.832;2023-07-20T10:58:35;98296.09;;;37.16;52.36
9717;BME280;4897;43.570;27.832;2023-07-20T11:01:05;98300.22;;;37.92;49.92
9717;BME280;4897;43.570;27.832;2023-07-20T11:03:33;98287.88;;;38.99;46.73
9717;BME280;4897;43.570;27.832;2023-07-20T11:06:30;98299.84;;;39.37;45.39
9717;BME280;4897;43.570;27.832;2023-07-20T11:09:09;98309.41;;;37.84;48.20
9717;BME280;4897;43.570;27.832;2023-07-20T11:11:41;98301.81;;;37.58;50.38
9717;BME280;4897;43.570;27.832;2023-07-20T11:14:09;98305.94;;;38.47;47.95
9717;BME280;4897;43.570;27.832;2023-07-20T11:16:41;98295.94;;;38.28;48.44
9717;BME280;4897;43.570;27.832;2023-07-20T11:19:20;98293.66;;;37.96;49.22
9717;BME280;4897;43.570;27.832;2023-07-20T11:21:50;98285.91;;;37.85;49.57
9717;BME280;4897;43.570;27.832;2023-07-20T11:24:21;98281.31;;;37.72;50.17
9717;BME280;4897;43.570;27.832;2023-07-20T11:26:50;98267.19;;;36.95;52.20
9717;BME280;4897;43.570;27.832;2023-07-20T11:29:18;98271.22;;;37.28;51.68
9717;BME280;4897;43.570;27.832;2023-07-20T11:31:46;98263.28;;;37.13;55.41
9717;BME280;4897;43.570;27.832;2023-07-20T11:34:14;98254.84;;;38.12;49.65
9717;BME280;4897;43.570;27.832;2023-07-20T11:36:43;98247.16;;;39.39;46.66
9717;BME280;4897;43.570;27.832;2023-07-20T11:39:12;98241.44;;;37.88;49.76
9717;BME280;4897;43.570;27.832;2023-07-20T11:41:44;98238.91;;;38.21;48.84
9717;BME280;4897;43.570;27.832;2023-07-20T11:44:11;98260.63;;;37.98;48.97
9717;BME280;4897;43.570;27.832;2023-07-20T11:46:41;98244.13;;;38.48;47.06
9717;BME280;4897;43.570;27.832;2023-07-20T11:49:09;98224.50;;;39.11;46.04
9717;BME280;4897;43.570;27.832;2023-07-20T11:51:37;98243.38;;;39.64;43.21
9717;BME280;4897;43.570;27.832;2023-07-20T11:54:06;98232.69;;;40.20;43.33
9717;BME280;4897;43.570;27.832;2023-07-20T11:56:34;98227.00;;;40.85;41.83
9717;BME280;4897;43.570;27.832;2023-07-20T11:59:02;98209.34;;;40.16;42.64
9717;BME280;4897;43.570;27.832;2023-07-20T12:01:30;98186.16;;;39.33;43.40
9717;BME280;4897;43.570;27.832;2023-07-20T12:03:59;98246.16;;;39.85;41.78
9717;BME280;4897;43.570;27.832;2023-07-20T12:06:31;98237.06;;;39.26;43.71
9717;BME280;4897;43.570;27.832;2023-07-20T12:09:04;98238.88;;;39.51;44.33
9717;BME280;4897;43.570;27.832;2023-07-20T12:11:34;98236.97;;;39.84;42.93
9717;BME280;4897;43.570;27.832;2023-07-20T12:14:09;98209.66;;;39.81;42.42
9717;BME280;4897;43.570;27.832;2023-07-20T12:16:36;98209.13;;;40.33;41.05
9717;BME280;4897;43.570;27.832;2023-07-20T12:19:06;98199.38;;;41.48;40.13
9717;BME280;4897;43.570;27.832;2023-07-20T12:21:34;98209.16;;;41.26;38.87
9717;BME280;4897;43.570;27.832;2023-07-20T12:24:03;98230.94;;;40.15;40.15
9717;BME280;4897;43.570;27.832;2023-07-20T12:26:31;98215.34;;;40.06;40.18
9717;BME280;4897;43.570;27.832;2023-07-20T12:28:58;98211.69;;;39.52;40.88
9717;BME280;4897;43.570;27.832;2023-07-20T12:31:27;98221.69;;;39.61;40.91
9717;BME280;4897;43.570;27.832;2023-07-20T12:33:56;98209.53;;;39.99;40.67
9717;BME280;4897;43.570;27.832;2023-07-20T12:36:24;98197.78;;;39.84;40.46
9717;BME280;4897;43.570;27.832;2023-07-20T12:38:51;98172.59;;;39.97;40.13
9717;BME280;4897;43.570;27.832;2023-07-20T12:41:21;98193.94;;;41.27;37.83
9717;BME280;4897;43.570;27.832;2023-07-20T12:43:48;98204.25;;;40.87;38.50
9717;BME280;4897;43.570;27.832;2023-07-20T12:46:15;98207.16;;;41.26;37.81
9717;BME280;4897;43.570;27.832;2023-07-20T12:48:43;98209.94;;;40.78;37.81
9717;BME280;4897;43.570;27.832;2023-07-20T12:51:12;98192.44;;;41.05;37.34
9717;BME280;4897;43.570;27.832;2023-07-20T12:53:38;98206.09;;;42.10;36.11
9717;BME280;4897;43.570;27.832;2023-07-20T12:56:05;98204.56;;;41.33;36.07
9717;BME280;4897;43.570;27.832;2023-07-20T12:58:35;98214.25;;;40.19;37.76
9717;BME280;4897;43.570;27.832;2023-07-20T13:01:02;98203.47;;;40.09;37.90
9717;BME280;4897;43.570;27.832;2023-07-20T13:03:29;98210.03;;;40.57;37.03
9717;BME280;4897;43.570;27.832;2023-07-20T13:05:58;98187.56;;;39.68;38.03
9717;BME280;4897;43.570;27.832;2023-07-20T13:08:26;98205.34;;;40.49;37.07
9717;BME280;4897;43.570;27.832;2023-07-20T13:10:53;98163.94;;;39.89;37.81